createdAt,value
2019-03-09T00:00:03.304Z,10.60
2019-03-09T00:02:32.930Z,9.90
2019-03-09T00:05:02.528Z,10.30
2019-03-09T00:07:32.099Z,10.20
2019-03-09T00:10:01.671Z,10.00
2019-03-09T00:12:32.328Z,9.80
2019-03-09T00:15:03.124Z,9.60
2019-03-09T00:17:32.754Z,10.00
2019-03-09T00:20:02.469Z,10.10
2019-03-09T00:22:33.556Z,10.20
2019-03-09T00:25:23.139Z,9.70
2019-03-09T00:27:57.594Z,9.90
2019-03-09T00:35:42.321Z,9.80
2019-03-09T00:38:12.098Z,9.00
2019-03-09T00:58:05.617Z,9.10
2019-03-09T01:00:35.391Z,9.80
2019-03-09T01:03:05.411Z,9.40
2019-03-09T01:05:35.787Z,9.20
2019-03-09T01:08:06.015Z,9.40
2019-03-09T01:10:35.924Z,9.40
2019-03-09T01:13:05.652Z,9.50
2019-03-09T01:15:35.537Z,9.30
2019-03-09T01:18:05.623Z,8.80
2019-03-09T01:20:35.341Z,8.80
2019-03-09T01:23:08.013Z,9.20
2019-03-09T01:25:38.041Z,9.10
2019-03-09T01:28:08.796Z,8.90
2019-03-09T01:30:39.951Z,8.70
2019-03-09T01:33:11.035Z,9.40
2019-03-09T01:35:42.483Z,9.10
2019-03-09T01:38:13.572Z,9.80
2019-03-09T01:40:44.449Z,9.10
2019-03-09T01:43:16.017Z,9.00
2019-03-09T01:45:45.750Z,8.90
2019-03-09T01:48:16.498Z,9.00
2019-03-09T01:50:48.371Z,9.00
2019-03-09T01:53:18.349Z,8.70
2019-03-09T01:55:50.520Z,8.70
2019-03-09T01:58:20.063Z,8.70
2019-03-09T02:00:50.946Z,8.60
2019-03-09T02:03:22.145Z,8.40
2019-03-09T02:05:51.911Z,8.60
2019-03-09T02:08:22.312Z,8.80
2019-03-09T02:10:53.803Z,8.60
2019-03-09T02:13:25.353Z,8.60
2019-03-09T02:15:55.113Z,8.40
2019-03-09T02:18:25.751Z,8.40
2019-03-09T02:20:55.406Z,9.00
2019-03-09T02:23:26.267Z,9.00
2019-03-09T02:25:55.943Z,8.60
2019-03-09T02:28:26.503Z,8.90
2019-03-09T02:30:56.052Z,8.60
2019-03-09T02:46:16.158Z,8.30
2019-03-09T02:48:46.995Z,8.10
2019-03-09T02:51:18.179Z,8.10
2019-03-09T02:53:47.787Z,8.40
2019-03-09T02:56:17.361Z,8.60
2019-03-09T02:58:47.474Z,9.10
2019-03-09T03:01:42.809Z,8.20
2019-03-09T03:04:13.188Z,8.10
2019-03-09T03:06:43.195Z,8.40
2019-03-09T03:09:13.074Z,8.40
2019-03-09T03:11:44.432Z,8.60
2019-03-09T03:14:14.030Z,8.70
2019-03-09T03:16:45.409Z,9.20
2019-03-09T03:19:15.053Z,8.60
2019-03-09T03:21:45.490Z,8.50
2019-03-09T03:24:15.417Z,8.20
2019-03-09T03:26:45.255Z,8.30
2019-03-09T03:29:14.839Z,8.60
2019-03-09T03:31:44.576Z,8.60
2019-03-09T03:34:14.162Z,8.60
2019-03-09T03:36:45.785Z,8.50
2019-03-09T03:39:17.243Z,8.60
2019-03-09T03:41:46.852Z,8.50
2019-03-09T03:44:18.310Z,8.50
2019-03-09T03:46:48.128Z,8.50
2019-03-09T03:49:17.982Z,8.50
2019-03-09T03:51:47.773Z,8.30
2019-03-09T03:54:17.335Z,9.10
2019-03-09T03:56:47.734Z,8.90
2019-03-09T03:59:19.120Z,8.60
2019-03-09T04:01:48.879Z,8.80
2019-03-09T04:04:18.552Z,8.80
2019-03-09T04:06:48.607Z,8.50
2019-03-09T04:09:18.680Z,8.40
2019-03-09T04:11:49.750Z,8.80
2019-03-09T04:14:19.815Z,8.90
2019-03-09T04:16:51.407Z,8.70
2019-03-09T04:19:22.571Z,8.40
2019-03-09T04:21:52.301Z,8.50
2019-03-09T04:24:22.742Z,8.70
2019-03-09T04:26:52.421Z,8.80
2019-03-09T04:29:22.736Z,8.80
2019-03-09T04:31:52.633Z,8.80
2019-03-09T04:34:22.202Z,9.30
2019-03-09T04:36:59.651Z,9.20
2019-03-09T04:39:29.229Z,9.30
2019-03-09T04:41:58.851Z,9.00
2019-03-09T04:44:28.810Z,8.90
2019-03-09T04:47:00.307Z,8.90
2019-03-09T04:49:29.875Z,8.90
2019-03-09T04:51:59.660Z,9.10
2019-03-09T04:54:29.583Z,9.20
2019-03-09T04:57:00.388Z,9.20
2019-03-09T04:59:30.371Z,9.10
2019-03-09T05:02:01.456Z,9.30
2019-03-09T05:04:40.860Z,9.30
2019-03-09T05:07:11.120Z,9.20
2019-03-09T05:09:56.638Z,9.60
2019-03-09T05:12:29.698Z,9.70
2019-03-09T05:15:00.745Z,9.30
2019-03-09T05:17:30.307Z,9.10
2019-03-09T05:20:01.172Z,9.20
2019-03-09T05:22:30.771Z,9.60
2019-03-09T05:25:00.499Z,9.30
2019-03-09T05:27:30.523Z,9.20
2019-03-09T05:30:00.435Z,9.20
2019-03-09T05:32:30.265Z,9.60
2019-03-09T05:34:59.878Z,9.60
2019-03-09T05:37:29.693Z,9.60
2019-03-09T05:40:01.819Z,9.60
2019-03-09T05:42:34.895Z,9.50
2019-03-09T05:45:04.975Z,9.70
2019-03-09T05:47:34.666Z,10.10
2019-03-09T05:50:04.857Z,9.80
2019-03-09T05:52:35.851Z,9.30
2019-03-09T05:55:22.519Z,9.90
2019-03-09T05:57:53.982Z,9.80
2019-03-09T06:00:23.656Z,9.40
2019-03-09T06:02:53.815Z,9.60
2019-03-09T06:05:40.136Z,9.40
2019-03-09T06:08:10.223Z,9.40
2019-03-09T06:10:39.972Z,9.20
2019-03-09T06:13:09.713Z,9.70
2019-03-09T06:15:39.288Z,9.40
2019-03-09T06:18:10.626Z,9.30
2019-03-09T06:20:40.647Z,9.80
2019-03-09T06:23:10.371Z,10.00
2019-03-09T06:25:41.491Z,9.40
2019-03-09T06:28:12.780Z,9.70
2019-03-09T06:30:42.340Z,9.40
2019-03-09T06:33:32.172Z,9.40
2019-03-09T06:36:25.753Z,9.40
2019-03-09T06:39:10.819Z,9.40
2019-03-09T06:42:22.586Z,9.50
2019-03-09T06:44:53.271Z,9.70
2019-03-09T06:47:22.895Z,9.60
2019-03-09T06:49:52.530Z,9.60
2019-03-09T06:52:23.667Z,9.60
2019-03-09T06:54:53.335Z,9.70
2019-03-09T06:57:23.011Z,9.70
2019-03-09T06:59:52.730Z,9.80
2019-03-09T07:02:22.374Z,9.70
2019-03-09T07:04:52.048Z,9.70
2019-03-09T07:07:22.831Z,10.00
2019-03-09T07:09:52.435Z,9.90
2019-03-09T07:12:22.611Z,9.90
2019-03-09T07:15:42.803Z,9.60
2019-03-09T07:18:14.740Z,9.60
2019-03-09T07:20:45.832Z,10.00
2019-03-09T07:23:15.691Z,10.00
2019-03-09T07:25:45.448Z,9.70
2019-03-09T07:28:16.437Z,9.80
2019-03-09T07:30:46.199Z,9.90
2019-03-09T07:33:15.906Z,9.80
2019-03-09T07:35:46.991Z,9.70
2019-03-09T07:38:20.003Z,9.70
2019-03-09T07:40:49.715Z,9.60
2019-03-09T07:43:19.611Z,9.70
2019-03-09T07:45:49.255Z,9.70
2019-03-09T07:48:19.047Z,9.80
2019-03-09T07:50:49.260Z,9.80
2019-03-09T07:53:19.323Z,9.80
2019-03-09T07:55:49.043Z,10.00
2019-03-09T07:58:19.083Z,10.00
2019-03-09T08:00:49.968Z,9.90
2019-03-09T08:03:19.987Z,10.20
2019-03-09T08:05:50.259Z,9.90
2019-03-09T08:08:19.927Z,10.00
2019-03-09T08:10:51.289Z,9.90
2019-03-09T08:13:20.939Z,10.00
2019-03-09T08:15:50.631Z,10.00
2019-03-09T08:18:20.305Z,10.00
2019-03-09T08:20:50.061Z,10.20
2019-03-09T08:23:19.636Z,10.30
2019-03-09T08:25:49.411Z,10.50
2019-03-09T08:28:19.148Z,10.10
2019-03-09T08:30:48.701Z,10.20
2019-03-09T08:33:18.672Z,10.30
2019-03-09T08:35:48.421Z,10.30
2019-03-09T08:38:18.003Z,10.10
2019-03-09T08:40:49.785Z,10.20
2019-03-09T08:43:19.562Z,10.60
2019-03-09T08:45:50.162Z,10.20
2019-03-09T08:48:19.742Z,10.10
2019-03-09T08:50:49.345Z,10.20
2019-03-09T08:53:19.145Z,10.20
2019-03-09T08:55:48.864Z,10.50
2019-03-09T08:58:18.501Z,10.50
2019-03-09T09:00:50.276Z,10.50
2019-03-09T09:03:20.867Z,10.50
2019-03-09T09:05:51.402Z,10.80
2019-03-09T09:08:21.051Z,10.60
2019-03-09T09:10:50.952Z,10.60
2019-03-09T09:13:23.394Z,10.60
2019-03-09T09:15:53.174Z,10.80
2019-03-09T09:18:23.839Z,11.10
2019-03-09T09:20:53.424Z,11.00
2019-03-09T09:23:23.160Z,10.90
2019-03-09T09:25:53.071Z,10.60
2019-03-09T09:28:22.998Z,10.70
2019-03-09T09:30:52.787Z,10.70
2019-03-09T09:33:22.595Z,10.80
2019-03-09T09:35:52.164Z,10.80
2019-03-09T09:38:23.543Z,11.00
2019-03-09T09:40:53.600Z,11.10
2019-03-09T09:43:23.157Z,11.20
2019-03-09T09:45:52.743Z,11.10
2019-03-09T09:48:23.805Z,11.00
2019-03-09T09:50:53.540Z,11.20
2019-03-09T09:53:24.691Z,11.40
2019-03-09T09:55:54.436Z,11.40
2019-03-09T09:58:24.058Z,11.20
2019-03-09T10:00:53.919Z,11.40
2019-03-09T10:03:25.815Z,11.10
2019-03-09T10:05:55.483Z,11.20
2019-03-09T10:08:25.195Z,11.30
2019-03-09T10:10:55.486Z,11.00
2019-03-09T10:13:25.650Z,11.00
2019-03-09T10:15:55.775Z,10.90
2019-03-09T10:18:25.694Z,10.90
2019-03-09T10:20:56.464Z,11.00
2019-03-09T10:23:26.027Z,11.00
2019-03-09T10:25:57.163Z,10.90
2019-03-09T10:28:26.843Z,10.90
2019-03-09T10:30:58.066Z,11.00
2019-03-09T10:33:29.662Z,11.20
2019-03-09T10:35:59.531Z,11.00
2019-03-09T10:38:32.807Z,11.10
2019-03-09T10:41:02.948Z,11.10
2019-03-09T10:43:32.741Z,11.30
2019-03-09T10:46:02.648Z,11.20
2019-03-09T10:48:32.318Z,11.40
2019-03-09T10:51:01.881Z,11.40
2019-03-09T10:53:31.545Z,11.50
2019-03-09T10:56:01.148Z,11.60
2019-03-09T10:58:32.079Z,11.60
2019-03-09T11:01:01.751Z,11.60
2019-03-09T11:03:31.963Z,11.80
2019-03-09T11:06:04.117Z,11.70
2019-03-09T11:08:35.543Z,11.70
2019-03-09T11:11:05.130Z,11.60
2019-03-09T11:13:36.193Z,11.60
2019-03-09T11:16:05.887Z,11.70
2019-03-09T11:18:35.499Z,11.70
2019-03-09T11:21:05.621Z,11.80
2019-03-09T11:23:37.427Z,11.70
2019-03-09T11:26:07.284Z,11.60
2019-03-09T11:28:37.119Z,11.70
2019-03-09T11:31:06.687Z,11.70
2019-03-09T11:33:38.199Z,11.50
2019-03-09T11:36:09.695Z,11.70
2019-03-09T11:38:40.266Z,11.70
2019-03-09T11:41:18.745Z,11.70
2019-03-09T11:43:41.148Z,11.80
2019-03-09T11:46:10.810Z,11.90
2019-03-09T11:48:40.416Z,12.10
2019-03-09T11:51:10.715Z,12.20
2019-03-09T11:53:42.299Z,12.20
2019-03-09T11:56:11.975Z,12.30
2019-03-09T11:58:42.771Z,12.40
2019-03-09T12:01:12.537Z,12.40
2019-03-09T12:03:42.205Z,12.50
2019-03-09T12:06:11.943Z,12.70
2019-03-09T12:08:44.609Z,12.90
2019-03-09T12:11:14.535Z,13.00
2019-03-09T12:13:44.359Z,13.30
2019-03-09T12:16:15.026Z,13.00
2019-03-09T12:18:44.684Z,13.10
2019-03-09T12:21:14.631Z,13.10
2019-03-09T12:24:03.320Z,12.90
2019-03-09T12:26:32.967Z,12.90
2019-03-09T12:29:03.211Z,12.80
2019-03-09T12:31:34.607Z,12.90
2019-03-09T12:34:04.358Z,13.30
2019-03-09T12:36:35.139Z,13.20
2019-03-09T12:39:06.570Z,13.00
2019-03-09T12:41:37.343Z,12.90
2019-03-09T12:44:07.059Z,13.00
2019-03-09T12:46:36.777Z,13.00
2019-03-09T12:49:08.258Z,12.90
2019-03-09T12:51:38.341Z,12.70
2019-03-09T12:54:09.340Z,12.60
2019-03-09T12:56:39.579Z,12.50
2019-03-09T12:59:09.455Z,12.60
2019-03-09T13:01:40.631Z,12.40
2019-03-09T13:04:12.639Z,12.60
2019-03-09T13:06:42.420Z,12.60
2019-03-09T13:09:12.002Z,12.40
2019-03-09T13:11:41.719Z,12.80
2019-03-09T13:14:12.631Z,12.80
2019-03-09T13:16:42.227Z,12.80
2019-03-09T13:19:12.343Z,12.70
2019-03-09T13:21:43.976Z,12.50
2019-03-09T13:24:13.835Z,12.30
2019-03-09T13:26:45.236Z,12.20
2019-03-09T13:29:14.815Z,12.20
2019-03-09T13:31:45.624Z,12.30
2019-03-09T13:34:16.746Z,12.20
2019-03-09T13:36:46.555Z,12.20
2019-03-09T13:39:16.413Z,11.80
2019-03-09T13:41:46.698Z,11.60
2019-03-09T13:46:46.841Z,11.20
2019-03-09T13:49:16.684Z,10.70
2019-03-09T13:51:46.601Z,10.70
2019-03-09T13:54:16.396Z,10.90
2019-03-09T13:56:45.983Z,10.60
2019-03-09T13:59:15.550Z,11.00
2019-03-09T14:01:46.281Z,11.10
2019-03-09T14:04:15.939Z,11.40
2019-03-09T14:06:45.611Z,11.50
2019-03-09T14:09:17.979Z,11.80
2019-03-09T14:11:50.043Z,11.90
2019-03-09T14:14:21.172Z,12.30
2019-03-09T14:16:54.436Z,12.60
2019-03-09T14:19:25.899Z,12.70
2019-03-09T14:21:57.503Z,11.90
2019-03-09T14:24:28.743Z,11.70
2019-03-09T14:26:58.624Z,11.40
2019-03-09T14:29:28.163Z,10.90
2019-03-09T14:31:58.032Z,11.10
2019-03-09T14:34:31.002Z,10.90
2019-03-09T14:37:00.749Z,10.90
2019-03-09T14:39:30.460Z,10.80
2019-03-09T14:42:00.151Z,10.80
2019-03-09T14:44:29.853Z,10.70
2019-03-09T14:47:01.447Z,10.90
2019-03-09T14:49:33.091Z,11.10
2019-03-09T14:52:02.811Z,11.60
2019-03-09T14:54:32.484Z,11.90
2019-03-09T14:57:02.072Z,12.00
2019-03-09T14:59:31.919Z,11.80
2019-03-09T15:02:01.913Z,11.80
2019-03-09T15:04:31.531Z,11.70
2019-03-09T15:07:06.523Z,11.40
2019-03-09T15:09:36.368Z,11.60
2019-03-09T15:12:07.139Z,11.60
2019-03-09T15:14:36.827Z,11.40
2019-03-09T15:17:08.371Z,11.10
2019-03-09T15:19:38.435Z,10.90
2019-03-09T15:22:07.996Z,10.80
2019-03-09T15:24:40.675Z,10.30
2019-03-09T15:27:10.358Z,10.20
2019-03-09T15:29:40.107Z,10.20
2019-03-09T15:32:09.927Z,10.60
2019-03-09T15:34:42.070Z,10.70
2019-03-09T15:37:11.630Z,10.80
2019-03-09T15:39:42.354Z,10.80
2019-03-09T15:42:11.931Z,10.70
2019-03-09T15:44:43.451Z,10.10
2019-03-09T15:47:13.196Z,9.60
2019-03-09T15:49:44.636Z,9.20
2019-03-09T15:52:14.319Z,9.00
2019-03-09T15:54:46.314Z,9.10
2019-03-09T15:57:15.881Z,9.50
2019-03-09T15:59:47.204Z,9.60
2019-03-09T16:02:17.127Z,9.70
2019-03-09T16:04:48.152Z,9.70
2019-03-09T16:07:18.817Z,9.90
2019-03-09T16:09:48.606Z,10.10
2019-03-09T16:12:18.853Z,10.10
2019-03-09T16:14:48.888Z,9.90
2019-03-09T16:17:20.320Z,9.70
2019-03-09T16:19:49.880Z,9.60
2019-03-09T16:29:47.588Z,9.10
2019-03-09T16:32:17.227Z,7.90
2019-03-09T16:34:47.011Z,7.70
2019-03-09T16:37:18.035Z,7.80
2019-03-09T16:39:47.755Z,8.00
2019-03-09T16:42:17.515Z,8.10
2019-03-09T16:44:47.123Z,8.40
2019-03-09T16:47:16.856Z,8.60
2019-03-09T16:49:48.113Z,8.50
2019-03-09T16:52:17.835Z,8.50
2019-03-09T16:54:48.679Z,8.50
2019-03-09T16:57:18.314Z,8.70
2019-03-09T16:59:47.935Z,8.80
2019-03-09T17:02:27.344Z,8.50
2019-03-09T17:04:49.579Z,8.50
2019-03-09T17:07:19.311Z,8.70
2019-03-09T17:09:49.403Z,8.50
2019-03-09T17:12:18.958Z,9.00
2019-03-09T17:14:48.803Z,9.10
2019-03-09T17:17:18.708Z,8.80
2019-03-09T17:19:48.349Z,8.90
2019-03-09T17:22:19.062Z,9.10
2019-03-09T17:24:48.943Z,8.90
2019-03-09T17:27:19.189Z,9.30
2019-03-09T17:29:49.288Z,9.20
2019-03-09T17:32:25.793Z,9.50
2019-03-09T17:34:51.368Z,9.00
2019-03-09T17:37:21.638Z,8.80
2019-03-09T17:39:51.163Z,8.90
2019-03-09T17:42:20.812Z,9.00
2019-03-09T17:44:50.632Z,9.00
2019-03-09T17:47:22.207Z,8.80
2019-03-09T17:49:51.748Z,8.90
2019-03-09T17:52:23.890Z,8.90
2019-03-09T17:54:54.879Z,9.10
2019-03-09T17:57:24.487Z,9.40
2019-03-09T17:59:54.141Z,10.10
2019-03-09T18:02:25.689Z,10.00
2019-03-09T18:04:55.498Z,10.40
2019-03-09T18:07:25.311Z,9.70
2019-03-09T18:09:56.932Z,9.70
2019-03-09T18:12:26.487Z,9.50
2019-03-09T18:14:57.519Z,9.20
2019-03-09T18:17:27.185Z,9.00
2019-03-09T18:19:57.663Z,9.30
2019-03-09T18:22:28.627Z,9.00
2019-03-09T18:24:58.307Z,8.90
2019-03-09T18:27:28.115Z,9.00
2019-03-09T18:29:58.265Z,9.70
2019-03-09T18:32:30.759Z,10.50
2019-03-09T18:35:03.395Z,10.10
2019-03-09T18:37:32.927Z,10.50
2019-03-09T18:40:02.990Z,9.80
2019-03-09T18:42:32.671Z,10.30
2019-03-09T18:45:04.319Z,10.50
2019-03-09T18:47:36.898Z,10.70
2019-03-09T18:50:06.587Z,10.90
2019-03-09T18:52:36.435Z,10.10
2019-03-09T18:55:07.523Z,9.70
2019-03-09T18:57:37.692Z,10.30
2019-03-09T19:00:08.832Z,10.10
2019-03-09T19:02:38.432Z,9.40
2019-03-09T19:05:08.239Z,10.80
2019-03-09T19:07:40.215Z,10.90
2019-03-09T19:10:11.448Z,11.70
2019-03-09T19:12:41.459Z,11.20
2019-03-09T19:15:11.995Z,10.80
2019-03-09T19:17:43.136Z,10.60
2019-03-09T19:20:13.445Z,10.80
2019-03-09T19:22:44.140Z,10.20
2019-03-09T19:25:14.464Z,9.80
2019-03-09T19:27:45.232Z,11.00
2019-03-09T19:30:15.904Z,10.60
2019-03-09T19:32:45.484Z,10.30
2019-03-09T19:35:15.862Z,10.90
2019-03-09T19:37:45.645Z,10.30
2019-03-09T19:40:15.575Z,11.40
2019-03-09T19:42:47.407Z,12.10
2019-03-09T19:45:20.423Z,11.00
2019-03-09T19:47:50.423Z,11.00
2019-03-09T19:50:21.427Z,10.60
2019-03-09T19:52:51.011Z,11.70
2019-03-09T19:55:21.818Z,11.40
2019-03-09T19:57:53.846Z,11.50
2019-03-09T20:00:23.451Z,11.00
2019-03-09T20:02:53.591Z,11.50
2019-03-09T20:05:23.172Z,10.20
2019-03-09T20:10:21.784Z,9.90
2019-03-09T20:12:51.896Z,10.30
2019-03-09T20:15:21.673Z,10.70
2019-03-09T20:17:51.435Z,10.90
2019-03-09T20:20:22.187Z,10.60
2019-03-09T20:22:52.285Z,10.90
2019-03-09T20:25:22.091Z,11.50
2019-03-09T20:27:51.626Z,11.80
2019-03-09T20:30:21.598Z,10.80
2019-03-09T20:32:51.404Z,10.60
2019-03-09T20:35:21.135Z,10.10
2019-03-09T20:37:50.917Z,10.90
2019-03-09T20:40:20.578Z,10.40
2019-03-09T20:42:51.596Z,11.00
2019-03-09T20:45:23.886Z,11.00
2019-03-09T20:47:53.543Z,11.40
2019-03-09T20:50:23.314Z,11.80
2019-03-09T20:52:52.871Z,11.50
2019-03-09T20:55:22.538Z,12.00
2019-03-09T20:57:52.371Z,11.80
2019-03-09T21:00:22.271Z,11.20
2019-03-09T21:02:52.135Z,10.80
2019-03-09T21:05:23.921Z,10.50
2019-03-09T21:07:54.715Z,10.60
2019-03-09T21:10:25.412Z,10.80
2019-03-09T21:13:03.052Z,9.90
2019-03-09T21:15:32.728Z,9.50
2019-03-09T21:18:02.421Z,10.00
2019-03-09T21:20:32.183Z,9.80
2019-03-09T21:23:03.948Z,10.10
2019-03-09T21:25:34.784Z,9.60
2019-03-09T21:28:04.726Z,9.60
2019-03-09T21:30:34.262Z,10.00
2019-03-09T21:33:05.373Z,9.80
2019-03-09T21:35:36.775Z,10.60
2019-03-09T21:38:06.503Z,10.50
2019-03-09T21:40:38.047Z,10.00
2019-03-09T21:43:07.627Z,10.00
2019-03-09T21:50:36.939Z,9.20
2019-03-09T21:53:06.603Z,10.00
2019-03-09T21:55:36.647Z,9.70
2019-03-09T21:58:06.755Z,9.70
2019-03-09T22:00:36.439Z,9.50
2019-03-09T22:03:06.375Z,10.10
2019-03-09T22:05:36.259Z,11.00
2019-03-09T22:08:07.055Z,11.10
2019-03-09T22:10:38.589Z,11.10
2019-03-09T22:13:08.163Z,10.40
2019-03-09T22:15:37.929Z,10.30
2019-03-09T22:18:07.856Z,10.30
2019-03-09T22:20:39.226Z,9.80
2019-03-09T22:23:09.088Z,10.00
2019-03-09T22:25:38.716Z,10.10
2019-03-09T22:28:09.719Z,10.30
2019-03-09T22:30:39.515Z,10.10
2019-03-09T22:33:11.061Z,10.60
2019-03-09T22:35:40.840Z,10.20
2019-03-09T22:38:10.571Z,9.70
2019-03-09T22:40:40.255Z,9.70
2019-03-09T22:43:11.646Z,10.50
2019-03-09T22:45:41.195Z,10.80
2019-03-09T22:48:10.943Z,11.10
2019-03-09T22:50:40.488Z,11.00
2019-03-09T22:53:10.071Z,10.70
2019-03-09T22:55:40.716Z,10.90
2019-03-09T22:58:12.144Z,10.90
2019-03-09T23:00:44.882Z,10.40
2019-03-09T23:03:15.720Z,10.60
2019-03-09T23:05:45.459Z,10.50
2019-03-09T23:08:15.007Z,10.50
2019-03-09T23:10:44.819Z,10.40
2019-03-09T23:13:15.478Z,9.90
2019-03-09T23:15:46.229Z,9.90
2019-03-09T23:18:15.915Z,10.30
2019-03-09T23:20:47.407Z,10.90
2019-03-09T23:23:16.953Z,9.80
2019-03-09T23:25:49.124Z,9.60
2019-03-09T23:28:18.771Z,10.50
2019-03-09T23:30:49.550Z,11.00
2019-03-09T23:33:20.900Z,11.50
2019-03-09T23:35:51.143Z,10.70
2019-03-09T23:38:20.732Z,10.30
2019-03-09T23:40:52.355Z,10.80
2019-03-09T23:43:22.052Z,10.80
2019-03-09T23:45:52.848Z,11.80
2019-03-09T23:48:23.442Z,11.10
2019-03-09T23:50:53.035Z,11.20
2019-03-09T23:53:24.384Z,10.90
2019-03-09T23:55:54.985Z,11.60
2019-03-09T23:58:24.710Z,11.70
